Airport Name : Camiri

Other Name : Camiri

ICAO : SLCA

IATA : CAM

FAA :

Latitude : -20

Longitude : -63.317

Country : Bolivia

Local Date and Time : 7/18/2018 6:21:00 PM

 

TAF (Terminal Aerodrome Forecast)

 

METAR (METeorological Aerodrome Report)

SLCA 182200Z 36005KT 9999 NSC 28/19 Q1009

SLCA 182100Z 36005KT 9999 NSC 28/18 Q1008

SLCA 182000Z 36005KT 9999 FEW033 SCT080 29/17 Q1009

SLCA 181900Z 36010KT 9999 SCT080 31/17 Q1009